createdAt,value
2023-03-10T00:01:20.692Z,3.30
2023-03-10T00:03:49.405Z,3.40
2023-03-10T00:06:21.186Z,3.50
2023-03-10T00:08:50.312Z,5.70
2023-03-10T00:11:19.031Z,6.53
2023-03-10T00:13:49.020Z,5.80
2023-03-10T00:16:20.704Z,5.40
2023-03-10T00:18:49.254Z,6.50
2023-03-10T00:21:19.436Z,7.20
2023-03-10T00:23:50.638Z,6.27
2023-03-10T00:26:21.226Z,6.57
2023-03-10T00:28:51.634Z,7.90
2023-03-10T00:31:22.113Z,8.00
2023-03-10T00:33:52.109Z,8.57
2023-03-10T00:36:22.614Z,8.03
2023-03-10T00:38:52.100Z,9.07
2023-03-10T00:41:22.621Z,9.37
2023-03-10T00:43:52.809Z,10.10
2023-03-10T00:46:21.741Z,10.40
2023-03-10T00:48:50.232Z,10.40
2023-03-10T00:51:19.292Z,10.90
2023-03-10T00:53:48.101Z,12.07
2023-03-10T00:56:18.026Z,13.27
2023-03-10T00:58:47.381Z,12.80
2023-03-10T01:01:19.544Z,12.90
2023-03-10T01:03:48.635Z,12.30
2023-03-10T01:06:16.990Z,12.50
2023-03-10T01:08:45.344Z,13.70
2023-03-10T01:11:15.383Z,16.00
2023-03-10T01:13:44.048Z,15.90
2023-03-10T01:16:13.138Z,16.63
2023-03-10T01:18:45.043Z,16.93
2023-03-10T01:21:17.680Z,18.70
2023-03-10T01:23:46.585Z,21.97
2023-03-10T01:26:16.449Z,24.50
2023-03-10T01:28:46.792Z,24.57
2023-03-10T01:31:15.646Z,23.23
2023-03-10T01:33:45.839Z,22.97
2023-03-10T01:36:16.654Z,21.87
2023-03-10T01:38:48.577Z,20.83
2023-03-10T01:41:18.439Z,19.47
2023-03-10T01:43:48.507Z,16.33
2023-03-10T01:46:51.302Z,16.60
2023-03-10T01:49:38.734Z,17.60
2023-03-10T01:52:13.902Z,17.40
2023-03-10T01:54:50.668Z,17.03
2023-03-10T01:57:23.262Z,15.90
2023-03-10T01:59:54.178Z,13.40
2023-03-10T02:02:23.634Z,13.63
2023-03-10T02:04:55.360Z,14.03
2023-03-10T02:07:28.136Z,14.87
2023-03-10T02:09:57.414Z,14.90
2023-03-10T02:12:26.381Z,14.77
2023-03-10T02:14:55.448Z,14.90
2023-03-10T02:17:25.406Z,16.80
2023-03-10T02:20:13.201Z,15.33
2023-03-10T02:22:41.992Z,15.90
2023-03-10T02:25:23.332Z,14.70
2023-03-10T02:27:53.643Z,14.83
2023-03-10T02:30:25.230Z,13.83
2023-03-10T02:32:56.712Z,13.37
2023-03-10T02:35:26.123Z,12.00
2023-03-10T02:37:59.707Z,10.80
2023-03-10T02:40:37.281Z,12.00
2023-03-10T02:43:19.600Z,11.10
2023-03-10T02:45:53.292Z,11.33
2023-03-10T02:48:28.217Z,9.93
2023-03-10T02:50:58.924Z,11.00
2023-03-10T02:53:29.454Z,10.00
2023-03-10T02:55:59.883Z,9.87
2023-03-10T02:58:33.263Z,10.10
2023-03-10T03:01:04.947Z,8.77
2023-03-10T03:03:36.349Z,9.33
2023-03-10T03:06:05.600Z,9.10
2023-03-10T03:08:34.412Z,10.00
2023-03-10T03:11:05.580Z,18.37
2023-03-10T03:13:35.674Z,18.73
2023-03-10T03:16:06.232Z,21.80
2023-03-10T03:18:34.703Z,25.37
2023-03-10T03:21:21.587Z,23.43
2023-03-10T03:23:50.358Z,25.60
2023-03-10T03:26:22.577Z,23.60
2023-03-10T03:28:56.192Z,20.90
2023-03-10T03:31:28.876Z,19.40
2023-03-10T03:34:15.591Z,18.90
2023-03-10T03:36:44.934Z,17.23
2023-03-10T03:39:17.484Z,17.77
2023-03-10T03:41:53.297Z,15.10
2023-03-10T03:44:23.582Z,13.60
2023-03-10T03:46:53.224Z,13.20
2023-03-10T03:49:22.756Z,11.23
2023-03-10T03:51:51.561Z,12.23
2023-03-10T03:54:20.663Z,11.73
2023-03-10T03:56:49.022Z,11.40
2023-03-10T03:59:18.000Z,11.50
2023-03-10T04:01:47.822Z,12.93
2023-03-10T04:04:16.318Z,13.57
2023-03-10T04:06:44.739Z,14.30
2023-03-10T04:09:13.902Z,14.33
2023-03-10T04:11:42.586Z,13.83
2023-03-10T04:14:10.959Z,13.80
2023-03-10T04:16:39.445Z,13.40
2023-03-10T04:19:09.920Z,11.30
2023-03-10T04:21:42.855Z,12.07
2023-03-10T04:24:11.316Z,10.60
2023-03-10T04:26:39.730Z,9.63
2023-03-10T04:29:08.674Z,9.03
2023-03-10T04:31:40.355Z,9.87
2023-03-10T04:34:12.048Z,8.43
2023-03-10T04:36:40.956Z,7.40
2023-03-10T04:39:09.895Z,6.40
2023-03-10T04:41:38.402Z,5.53
2023-03-10T04:44:09.514Z,4.97
2023-03-10T04:46:44.219Z,4.40
2023-03-10T04:49:15.353Z,4.00
2023-03-10T04:51:45.886Z,4.00
2023-03-10T04:54:14.334Z,2.50
2023-03-10T04:56:43.750Z,2.93
2023-03-10T04:59:12.494Z,2.03
2023-03-10T05:01:41.267Z,3.23
2023-03-10T05:04:10.471Z,2.90
2023-03-10T05:06:40.301Z,3.20
2023-03-10T05:09:17.321Z,3.33
2023-03-10T05:11:46.945Z,2.67
2023-03-10T05:14:15.914Z,2.83
2023-03-10T05:16:44.834Z,3.37
2023-03-10T05:19:13.292Z,3.03
2023-03-10T05:21:43.244Z,2.80
2023-03-10T05:24:12.058Z,2.83
2023-03-10T05:26:41.804Z,2.60
2023-03-10T05:29:10.426Z,3.20
2023-03-10T05:31:46.721Z,3.10
2023-03-10T05:34:23.819Z,2.93
2023-03-10T05:36:54.850Z,2.57
2023-03-10T05:39:23.550Z,2.30
2023-03-10T05:41:55.126Z,3.53
2023-03-10T05:44:26.955Z,2.97
2023-03-10T05:46:55.816Z,3.43
2023-03-10T05:49:24.706Z,3.23
2023-03-10T05:51:55.583Z,3.00
2023-03-10T05:54:24.293Z,3.50
2023-03-10T05:56:52.954Z,3.90
2023-03-10T05:59:24.392Z,3.07
2023-03-10T06:01:53.985Z,3.57
2023-03-10T06:04:22.718Z,3.50
2023-03-10T06:06:51.535Z,3.77
2023-03-10T06:09:21.344Z,3.57
2023-03-10T06:11:49.884Z,3.50
2023-03-10T06:14:18.335Z,4.20
2023-03-10T06:16:51.509Z,5.23
2023-03-10T06:19:20.437Z,4.47
2023-03-10T06:21:49.454Z,5.30
2023-03-10T06:24:17.886Z,3.93
2023-03-10T06:26:48.034Z,3.90
2023-03-10T06:29:16.437Z,3.47
2023-03-10T06:31:45.012Z,4.17
2023-03-10T06:34:13.564Z,3.90
2023-03-10T06:36:42.163Z,4.20
2023-03-10T06:39:10.871Z,5.10
2023-03-10T06:41:39.874Z,7.10
2023-03-10T06:44:09.636Z,8.00
2023-03-10T06:46:38.195Z,11.20
2023-03-10T06:49:06.604Z,13.13
2023-03-10T06:51:35.314Z,15.30
2023-03-10T06:54:03.766Z,17.50
2023-03-10T06:56:32.461Z,20.57
2023-03-10T06:59:01.328Z,20.00
2023-03-10T07:01:33.489Z,16.77
2023-03-10T07:04:02.887Z,15.33
2023-03-10T07:06:31.433Z,16.53
2023-03-10T07:09:00.838Z,15.70
2023-03-10T07:11:29.409Z,12.83
2023-03-10T07:13:57.887Z,12.33
2023-03-10T07:16:26.496Z,14.33
2023-03-10T07:18:56.343Z,14.63
2023-03-10T07:21:24.882Z,12.27
2023-03-10T07:23:53.326Z,12.63
2023-03-10T07:26:22.229Z,10.57
2023-03-10T07:28:50.731Z,12.90
2023-03-10T07:31:19.333Z,13.40
2023-03-10T07:33:49.359Z,17.00
2023-03-10T07:36:21.315Z,18.77
2023-03-10T07:38:50.597Z,16.77
2023-03-10T07:41:22.062Z,17.13
2023-03-10T07:43:53.944Z,15.50
2023-03-10T07:46:23.440Z,16.27
2023-03-10T07:48:52.987Z,17.97
2023-03-10T07:51:23.025Z,16.40
2023-03-10T07:53:51.450Z,16.40
2023-03-10T07:56:19.999Z,17.33
2023-03-10T07:58:48.538Z,18.03
2023-03-10T08:01:19.277Z,21.63
2023-03-10T08:03:48.535Z,28.03
2023-03-10T08:06:23.656Z,26.30
2023-03-10T08:08:52.620Z,25.60
2023-03-10T08:11:22.047Z,25.10
2023-03-10T08:13:50.809Z,24.33
2023-03-10T08:16:21.698Z,26.53
2023-03-10T08:18:51.386Z,24.17
2023-03-10T08:21:20.288Z,26.10
2023-03-10T08:23:50.099Z,26.20
2023-03-10T08:26:20.442Z,26.03
2023-03-10T08:28:49.702Z,24.10
2023-03-10T08:31:21.511Z,25.07
2023-03-10T08:33:51.078Z,26.30
2023-03-10T08:36:22.836Z,24.80
2023-03-10T08:38:53.957Z,25.30
2023-03-10T08:41:24.084Z,26.60
2023-03-10T08:43:54.497Z,26.83
2023-03-10T08:46:25.452Z,28.80
2023-03-10T08:48:54.621Z,28.23
2023-03-10T08:51:23.749Z,28.53
2023-03-10T08:53:54.085Z,27.83
2023-03-10T08:56:24.272Z,25.20
2023-03-10T08:58:57.993Z,28.97
2023-03-10T09:01:29.158Z,24.70
2023-03-10T09:03:58.447Z,26.53
2023-03-10T09:06:27.094Z,27.43
2023-03-10T09:08:57.068Z,25.03
2023-03-10T09:11:28.221Z,23.17
2023-03-10T09:13:57.181Z,24.00
2023-03-10T09:16:26.468Z,22.83
2023-03-10T09:18:55.117Z,23.90
2023-03-10T09:21:24.174Z,21.50
2023-03-10T09:23:53.340Z,21.37
2023-03-10T09:26:23.496Z,19.33
2023-03-10T09:28:53.403Z,19.70
2023-03-10T09:31:26.484Z,19.00
2023-03-10T09:33:55.172Z,20.00
2023-03-10T09:36:23.742Z,19.10
2023-03-10T09:38:52.329Z,17.50
2023-03-10T09:41:49.533Z,18.63
2023-03-10T09:44:30.760Z,18.63
2023-03-10T09:47:20.296Z,18.17
2023-03-10T09:49:56.449Z,17.83
2023-03-10T09:52:29.700Z,17.20
2023-03-10T09:55:03.772Z,17.60
2023-03-10T09:57:34.664Z,16.10
2023-03-10T10:00:11.031Z,17.43
2023-03-10T10:02:43.916Z,17.03
2023-03-10T10:05:19.356Z,16.93
2023-03-10T10:07:52.047Z,15.83
2023-03-10T10:10:25.802Z,15.07
2023-03-10T10:12:59.329Z,14.40
2023-03-10T10:15:34.902Z,16.63
2023-03-10T10:18:20.072Z,15.53
2023-03-10T10:20:53.957Z,14.70
2023-03-10T10:23:28.680Z,13.53
2023-03-10T10:26:02.168Z,13.10
2023-03-10T10:28:41.747Z,13.57
2023-03-10T10:31:20.074Z,16.10
2023-03-10T10:34:00.594Z,16.70
2023-03-10T10:36:31.973Z,15.90
2023-03-10T10:39:00.936Z,12.10
2023-03-10T10:41:31.416Z,13.80
2023-03-10T10:44:08.140Z,13.23
2023-03-10T10:46:37.034Z,12.20
2023-03-10T10:49:09.096Z,12.13
2023-03-10T10:51:38.781Z,10.40
2023-03-10T10:54:28.199Z,9.57
2023-03-10T10:56:59.029Z,8.83
2023-03-10T10:59:33.969Z,8.77
2023-03-10T11:02:04.210Z,9.43
2023-03-10T11:04:44.181Z,9.70
2023-03-10T11:07:17.446Z,11.53
2023-03-10T11:09:46.052Z,12.73
2023-03-10T11:12:20.554Z,12.60
2023-03-10T11:15:09.396Z,14.00
2023-03-10T11:17:44.909Z,12.53
2023-03-10T11:20:27.638Z,12.80
2023-03-10T11:23:09.401Z,12.00
2023-03-10T11:25:42.706Z,12.60
2023-03-10T11:28:29.580Z,12.70
2023-03-10T11:31:10.083Z,9.67
2023-03-10T11:33:47.345Z,8.13
2023-03-10T11:36:26.867Z,7.00
2023-03-10T11:39:01.303Z,6.10
2023-03-10T11:41:34.331Z,5.57
2023-03-10T11:44:12.037Z,3.70
2023-03-10T11:46:49.071Z,4.00
2023-03-10T11:49:19.875Z,3.40
2023-03-10T11:51:51.850Z,3.87
2023-03-10T11:54:26.790Z,3.00
2023-03-10T11:56:56.421Z,3.30
2023-03-10T11:59:27.151Z,3.20
2023-03-10T12:02:00.323Z,3.30
2023-03-10T12:04:34.135Z,2.53
2023-03-10T12:07:09.902Z,2.73
2023-03-10T12:09:42.682Z,2.73
2023-03-10T12:12:16.098Z,2.97
2023-03-10T12:14:46.209Z,3.13
2023-03-10T12:17:17.868Z,2.10
2023-03-10T12:20:09.440Z,2.27
2023-03-10T12:22:40.694Z,2.00
2023-03-10T12:25:42.740Z,1.97
2023-03-10T12:28:35.463Z,2.60
2023-03-10T12:31:05.623Z,2.77
2023-03-10T12:34:04.008Z,2.10
2023-03-10T12:36:40.274Z,2.80
2023-03-10T12:39:32.909Z,3.20
2023-03-10T12:42:02.618Z,2.90
2023-03-10T12:44:49.349Z,2.83
2023-03-10T12:47:30.307Z,3.27
2023-03-10T12:50:05.762Z,2.53
2023-03-10T12:52:47.845Z,3.03
2023-03-10T12:55:19.359Z,2.90
2023-03-10T12:57:57.524Z,3.47
2023-03-10T13:00:46.055Z,4.37
2023-03-10T13:03:31.075Z,3.40
2023-03-10T13:06:05.177Z,4.17
2023-03-10T13:08:44.508Z,3.67
2023-03-10T13:11:32.060Z,3.83
2023-03-10T13:14:04.377Z,3.87
2023-03-10T13:16:34.386Z,3.93
2023-03-10T13:19:04.112Z,3.43
2023-03-10T13:21:36.126Z,4.50
2023-03-10T13:24:20.322Z,4.23
2023-03-10T13:26:48.907Z,3.70
2023-03-10T13:29:19.494Z,4.50
2023-03-10T13:31:54.724Z,5.77
2023-03-10T13:34:25.065Z,5.13
2023-03-10T13:37:04.006Z,5.27
2023-03-10T13:39:32.435Z,5.27
2023-03-10T13:42:03.376Z,4.60
2023-03-10T13:44:36.045Z,4.70
2023-03-10T13:47:13.754Z,5.03
2023-03-10T13:49:47.171Z,4.90
2023-03-10T13:52:19.271Z,6.30
2023-03-10T13:54:47.760Z,7.47
2023-03-10T13:57:21.687Z,8.03
2023-03-10T13:59:50.743Z,8.20
2023-03-10T14:02:22.041Z,8.80
2023-03-10T14:04:52.598Z,10.43
2023-03-10T14:07:23.876Z,9.50
2023-03-10T14:10:14.913Z,9.27
2023-03-10T14:12:45.598Z,10.80
2023-03-10T14:15:24.090Z,11.30
2023-03-10T14:18:14.332Z,11.27
2023-03-10T14:20:44.280Z,11.10
2023-03-10T14:23:36.759Z,9.97
2023-03-10T14:26:15.016Z,11.50
2023-03-10T14:28:43.733Z,9.13
2023-03-10T14:31:21.351Z,9.93
2023-03-10T14:33:51.168Z,9.77
2023-03-10T14:36:19.763Z,10.90
2023-03-10T14:38:49.565Z,11.30
2023-03-10T14:41:23.783Z,10.17
2023-03-10T14:43:53.093Z,9.73
2023-03-10T14:46:21.877Z,9.87
2023-03-10T14:48:50.722Z,11.43
2023-03-10T14:51:34.584Z,10.60
2023-03-10T14:54:05.383Z,10.93
2023-03-10T14:56:35.101Z,12.70
2023-03-10T14:59:03.659Z,12.30
2023-03-10T15:01:32.387Z,11.83
2023-03-10T15:04:00.993Z,13.37
2023-03-10T15:06:29.433Z,12.50
2023-03-10T15:08:57.976Z,13.70
2023-03-10T15:11:37.003Z,13.57
2023-03-10T15:14:11.620Z,12.87
2023-03-10T15:16:40.096Z,16.17
2023-03-10T15:19:13.137Z,15.97
2023-03-10T15:21:41.719Z,14.30
2023-03-10T15:24:10.148Z,14.83
2023-03-10T15:26:40.030Z,14.30
2023-03-10T15:29:08.712Z,15.30
2023-03-10T15:31:37.284Z,13.70
2023-03-10T15:34:06.583Z,15.10
2023-03-10T15:36:35.560Z,14.70
2023-03-10T15:39:04.845Z,15.50
2023-03-10T15:41:36.197Z,15.10
2023-03-10T15:44:06.750Z,14.67
2023-03-10T15:46:35.344Z,15.90
2023-03-10T15:49:04.924Z,13.57
2023-03-10T15:51:33.674Z,13.77
2023-03-10T15:54:02.418Z,13.70
2023-03-10T15:56:30.802Z,12.57
2023-03-10T15:58:59.549Z,11.33
2023-03-10T16:01:29.725Z,10.73
2023-03-10T16:04:01.662Z,11.73
2023-03-10T16:06:30.585Z,12.53
2023-03-10T16:08:59.176Z,12.00
2023-03-10T16:11:28.141Z,11.90
2023-03-10T16:13:56.709Z,11.67
2023-03-10T16:16:26.493Z,10.60
2023-03-10T16:18:56.677Z,12.00
2023-03-10T16:21:25.132Z,10.03
2023-03-10T16:23:53.906Z,10.80
2023-03-10T16:26:24.225Z,9.10
2023-03-10T16:28:54.536Z,10.60
2023-03-10T16:31:24.715Z,9.67
2023-03-10T16:33:54.272Z,9.60
2023-03-10T16:36:25.914Z,9.27
2023-03-10T16:38:55.265Z,9.60
2023-03-10T16:41:24.804Z,8.70
2023-03-10T16:43:54.660Z,9.27
2023-03-10T16:46:26.090Z,8.10
2023-03-10T16:48:55.766Z,9.03
2023-03-10T16:51:28.769Z,8.13
2023-03-10T16:53:59.361Z,9.17
2023-03-10T16:56:29.673Z,8.23
2023-03-10T16:58:58.862Z,7.90
2023-03-10T17:01:27.470Z,9.17
2023-03-10T17:03:56.808Z,9.53
2023-03-10T17:06:29.143Z,10.00
2023-03-10T17:08:57.969Z,8.60
2023-03-10T17:11:29.433Z,9.00
2023-03-10T17:13:59.801Z,9.20
2023-03-10T17:16:31.025Z,9.40
2023-03-10T17:19:02.026Z,8.93
2023-03-10T17:21:35.809Z,8.73
2023-03-10T17:24:05.073Z,7.90
2023-03-10T17:26:34.317Z,8.97
2023-03-10T17:29:02.987Z,8.77
2023-03-10T17:31:32.270Z,9.37
2023-03-10T17:34:02.204Z,10.03
2023-03-10T17:36:32.193Z,9.67
2023-03-10T17:39:02.514Z,9.07
2023-03-10T17:41:32.699Z,9.63
2023-03-10T17:44:01.198Z,9.30
2023-03-10T17:46:30.987Z,9.47
2023-03-10T17:49:00.128Z,9.90
2023-03-10T17:51:32.076Z,9.23
2023-03-10T17:54:02.332Z,9.17
2023-03-10T17:56:31.333Z,9.17
2023-03-10T17:59:00.464Z,8.83
2023-03-10T18:01:30.353Z,9.27
2023-03-10T18:04:00.668Z,8.40
2023-03-10T18:06:33.036Z,9.20
2023-03-10T18:09:04.618Z,9.47
2023-03-10T18:11:34.314Z,9.30
2023-03-10T18:14:03.900Z,9.10
2023-03-10T18:16:34.257Z,8.73
2023-03-10T18:19:04.168Z,8.20
2023-03-10T18:21:34.157Z,9.20
2023-03-10T18:24:03.582Z,10.07
2023-03-10T18:26:32.284Z,10.87
2023-03-10T18:29:01.379Z,9.07
2023-03-10T18:31:32.683Z,7.70
2023-03-10T18:34:01.859Z,5.80
2023-03-10T18:36:31.134Z,6.10
2023-03-10T18:39:02.446Z,6.00
2023-03-10T18:41:32.360Z,4.83
2023-03-10T18:44:01.178Z,6.13
2023-03-10T18:46:29.733Z,5.60
2023-03-10T18:48:58.367Z,4.27
2023-03-10T18:51:28.203Z,5.53
2023-03-10T18:54:01.291Z,5.33
2023-03-10T18:56:32.715Z,5.37
2023-03-10T18:59:01.162Z,4.83
2023-03-10T19:01:29.948Z,5.53
2023-03-10T19:03:58.400Z,7.23
2023-03-10T19:06:31.267Z,6.77
2023-03-10T19:09:01.914Z,5.17
2023-03-10T19:11:35.452Z,4.57
2023-03-10T19:14:05.447Z,5.57
2023-03-10T19:16:35.578Z,5.20
2023-03-10T19:19:04.115Z,5.60
2023-03-10T19:21:32.991Z,6.10
2023-03-10T19:24:02.834Z,5.93
2023-03-10T19:26:33.261Z,5.20
2023-03-10T19:29:01.844Z,7.10
2023-03-10T19:31:30.378Z,10.40
2023-03-10T19:33:58.869Z,11.57
2023-03-10T19:36:29.536Z,10.47
2023-03-10T19:38:58.145Z,9.20
2023-03-10T19:41:28.081Z,5.80
2023-03-10T19:43:56.514Z,7.13
2023-03-10T19:46:25.076Z,6.30
2023-03-10T19:48:53.565Z,5.73
2023-03-10T19:51:29.857Z,6.67
2023-03-10T19:53:58.899Z,6.60
2023-03-10T19:56:28.935Z,5.77
2023-03-10T19:58:57.479Z,5.67
2023-03-10T20:01:27.664Z,7.53
2023-03-10T20:03:58.565Z,7.20
2023-03-10T20:06:27.997Z,6.00
2023-03-10T20:08:57.319Z,5.47
2023-03-10T20:11:25.925Z,4.80
2023-03-10T20:13:56.051Z,6.07
2023-03-10T20:16:27.665Z,5.97
2023-03-10T20:18:56.329Z,5.57
2023-03-10T20:21:24.895Z,5.90
2023-03-10T20:23:55.991Z,5.60
2023-03-10T20:26:43.245Z,5.30
2023-03-10T20:29:15.304Z,6.57
2023-03-10T20:31:43.870Z,5.53
2023-03-10T20:34:21.559Z,5.90
2023-03-10T20:36:50.270Z,4.53
2023-03-10T20:39:19.028Z,4.57
2023-03-10T20:41:48.360Z,4.07
2023-03-10T20:44:19.251Z,4.57
2023-03-10T20:46:47.965Z,5.07
2023-03-10T20:49:16.368Z,4.93
2023-03-10T20:51:44.932Z,5.60
2023-03-10T20:54:13.368Z,5.10
2023-03-10T20:56:41.868Z,4.27
2023-03-10T20:59:10.368Z,4.50
2023-03-10T21:01:42.482Z,4.70
2023-03-10T21:04:11.133Z,5.97
2023-03-10T21:06:39.645Z,5.07
2023-03-10T21:09:08.046Z,5.80
2023-03-10T21:11:36.742Z,4.70
2023-03-10T21:14:06.308Z,4.70
2023-03-10T21:16:41.625Z,4.77
2023-03-10T21:19:10.416Z,4.37
2023-03-10T21:21:38.952Z,4.33
2023-03-10T21:24:07.999Z,4.77
2023-03-10T21:26:37.032Z,4.80
2023-03-10T21:29:06.198Z,5.27
2023-03-10T21:31:35.253Z,5.73
2023-03-10T21:34:05.313Z,5.90
2023-03-10T21:36:33.828Z,4.87
2023-03-10T21:39:02.958Z,5.87
2023-03-10T21:41:32.293Z,5.10
2023-03-10T21:44:00.787Z,4.37
2023-03-10T21:46:29.402Z,4.40
2023-03-10T21:48:58.139Z,4.10
2023-03-10T21:51:28.043Z,4.00
2023-03-10T21:53:56.913Z,3.67
2023-03-10T21:56:28.264Z,3.30
2023-03-10T21:58:57.561Z,3.47
2023-03-10T22:01:26.954Z,4.03
2023-03-10T22:03:55.532Z,3.90
2023-03-10T22:06:24.206Z,3.37
2023-03-10T22:08:54.171Z,3.30
2023-03-10T22:11:22.707Z,4.00
2023-03-10T22:13:51.310Z,3.30
2023-03-10T22:16:19.767Z,3.13
2023-03-10T22:18:49.520Z,3.67
2023-03-10T22:21:18.442Z,3.37
2023-03-10T22:23:47.031Z,3.67
2023-03-10T22:26:17.170Z,3.30
2023-03-10T22:28:45.594Z,3.20
2023-03-10T22:31:14.232Z,3.53
2023-03-10T22:33:43.043Z,3.30
2023-03-10T22:36:14.241Z,3.00
2023-03-10T22:38:42.758Z,3.57
2023-03-10T22:41:12.519Z,3.07
2023-03-10T22:43:42.513Z,3.00
2023-03-10T22:46:13.619Z,3.57
2023-03-10T22:48:43.115Z,2.90
2023-03-10T22:51:16.592Z,2.80
2023-03-10T22:53:46.572Z,3.10
2023-03-10T22:56:15.112Z,2.37
2023-03-10T22:58:44.971Z,2.80
2023-03-10T23:01:13.665Z,3.00
2023-03-10T23:03:42.632Z,2.70
2023-03-10T23:06:13.559Z,2.50
2023-03-10T23:08:43.713Z,2.53
2023-03-10T23:11:13.455Z,2.80
2023-03-10T23:13:42.840Z,2.43
2023-03-10T23:16:12.963Z,2.40
2023-03-10T23:18:41.729Z,2.40
2023-03-10T23:21:10.271Z,2.00
2023-03-10T23:23:39.294Z,2.80
2023-03-10T23:26:07.880Z,2.80
2023-03-10T23:28:36.366Z,2.63
2023-03-10T23:31:05.041Z,2.63
2023-03-10T23:33:35.500Z,2.77
2023-03-10T23:36:04.154Z,2.47
2023-03-10T23:38:32.632Z,2.33
2023-03-10T23:41:01.188Z,2.47
2023-03-10T23:43:29.859Z,3.00
2023-03-10T23:45:58.666Z,2.33
2023-03-10T23:48:27.272Z,2.77
2023-03-10T23:50:57.313Z,2.77
2023-03-10T23:53:28.543Z,3.20
2023-03-10T23:55:58.921Z,3.17
2023-03-10T23:58:28.217Z,3.00
